Time;durP1;ratioP1;P1;durP2;ratioP2;P2;SDS_P1;SDS_P2;PMS_P1;PMS_P2;Temp;Humidity;BMP_temperature;BMP_pressure;BME280_temperature;BME280_humidity;BME280_pressure;Samples;Min_cycle;Max_cycle;Signal;HPM_P1;HPM_P2
2022/05/28 00:01:19;;;;;;;10.10;2.65;;;;;;;;;;5096358;28;20408;-53
2022/05/28 00:03:46;;;;;;;11.82;2.72;;;;;;;;;;5097448;28;20384;-54
2022/05/28 00:06:14;;;;;;;11.35;3.00;;;;;;;;;;5114381;28;20458;-55
2022/05/28 00:08:40;;;;;;;13.05;2.72;;;;;;;;;;5098151;28;20384;-52
2022/05/28 00:11:12;;;;;;;11.73;2.55;;;;;;;;;;5116774;28;20388;-52
2022/05/28 00:13:38;;;;;;;11.40;3.25;;;;;;;;;;5098089;28;20584;-54
2022/05/28 00:16:04;;;;;;;13.63;2.97;;;;;;;;;;5098895;28;20388;-51
2022/05/28 00:18:31;;;;;;;11.05;2.75;;;;;;;;;;5098815;28;20372;-52
2022/05/28 00:20:57;;;;;;;10.40;2.63;;;;;;;;;;5099611;28;20423;-54
2022/05/28 00:23:23;;;;;;;8.45;2.15;;;;;;;;;;5098819;28;20380;-52
2022/05/28 00:25:49;;;;;;;6.60;1.88;;;;;;;;;;5117468;28;20997;-54
2022/05/28 00:28:15;;;;;;;7.30;2.13;;;;;;;;;;5098871;28;20418;-52
2022/05/28 00:30:41;;;;;;;6.30;1.60;;;;;;;;;;5098645;28;20391;-54
2022/05/28 00:33:08;;;;;;;7.40;1.75;;;;;;;;;;5099065;28;20384;-52
2022/05/28 00:35:34;;;;;;;5.05;1.30;;;;;;;;;;5097441;28;20915;-48
2022/05/28 00:38:00;;;;;;;4.88;1.60;;;;;;;;;;5115504;28;20377;-54
2022/05/28 00:40:27;;;;;;;6.40;1.58;;;;;;;;;;5097633;28;20411;-52
2022/05/28 00:42:57;;;;;;;4.20;1.40;;;;;;;;;;5097034;28;20416;-52
2022/05/28 00:45:23;;;;;;;4.25;1.10;;;;;;;;;;5095714;28;20412;-51
2022/05/28 00:47:52;;;;;;;4.95;1.60;;;;;;;;;;5096993;28;20432;-48
2022/05/28 00:50:18;;;;;;;6.53;1.73;;;;;;;;;;5099127;28;20389;-49
2022/05/28 00:52:45;;;;;;;6.15;1.70;;;;;;;;;;5100081;28;20388;-54
2022/05/28 00:55:11;;;;;;;7.28;2.08;;;;;;;;;;5099783;28;20388;-56
2022/05/28 00:57:39;;;;;;;5.32;1.77;;;;;;;;;;5116931;28;20498;-56
2022/05/28 01:00:08;;;;;;;3.67;1.60;;;;;;;;;;5117009;28;20416;-54
2022/05/28 01:02:40;;;;;;;5.93;1.80;;;;;;;;;;5080169;28;20802;-51
2022/05/28 01:05:17;;;;;;;9.65;1.77;;;;;;;;;;5078831;28;20385;-55
2022/05/28 01:07:46;;;;;;;7.53;1.80;;;;;;;;;;5097418;28;20375;-53
2022/05/28 01:10:29;;;;;;;7.13;2.15;;;;;;;;;;5079879;28;20393;-50
2022/05/28 01:13:10;;;;;;;5.63;1.65;;;;;;;;;;5079834;28;20394;-53
2022/05/28 01:15:38;;;;;;;7.60;1.80;;;;;;;;;;5063561;28;20382;-54
2022/05/28 01:18:17;;;;;;;5.05;1.60;;;;;;;;;;5079902;28;20393;-54
2022/05/28 01:20:47;;;;;;;7.93;2.17;;;;;;;;;;5080121;28;20426;-52
2022/05/28 01:23:22;;;;;;;7.00;2.10;;;;;;;;;;5080211;28;20386;-52
2022/05/28 01:25:56;;;;;;;7.13;1.83;;;;;;;;;;5079434;28;20448;-53
2022/05/28 01:28:24;;;;;;;10.03;2.53;;;;;;;;;;5077427;28;20436;-51
2022/05/28 01:30:51;;;;;;;6.45;1.80;;;;;;;;;;5078858;28;20443;-52
2022/05/28 01:33:17;;;;;;;9.30;2.03;;;;;;;;;;5096160;28;20374;-51
2022/05/28 01:35:44;;;;;;;8.20;1.70;;;;;;;;;;5078629;28;20462;-53
2022/05/28 01:38:14;;;;;;;7.72;1.90;;;;;;;;;;5078548;28;20388;-52
2022/05/28 01:40:41;;;;;;;5.97;1.60;;;;;;;;;;5096399;28;20405;-54
2022/05/28 01:43:09;;;;;;;6.07;1.73;;;;;;;;;;5078903;28;21003;-54
2022/05/28 01:45:37;;;;;;;6.95;1.77;;;;;;;;;;5076537;28;20698;-53
2022/05/28 01:48:04;;;;;;;5.72;1.60;;;;;;;;;;5095476;28;20761;-52
2022/05/28 01:50:32;;;;;;;4.45;1.17;;;;;;;;;;5078077;28;20382;-51
2022/05/28 01:53:00;;;;;;;5.27;1.30;;;;;;;;;;5077794;28;20386;-50
2022/05/28 01:55:27;;;;;;;5.20;1.60;;;;;;;;;;5078485;28;20390;-49
2022/05/28 01:57:53;;;;;;;6.68;1.70;;;;;;;;;;5077729;28;20738;-53
2022/05/28 02:00:19;;;;;;;3.88;1.30;;;;;;;;;;5076663;28;20410;-53
2022/05/28 02:02:45;;;;;;;5.57;1.40;;;;;;;;;;5078655;28;20386;-52
2022/05/28 02:05:13;;;;;;;3.80;1.10;;;;;;;;;;5096152;28;20374;-51
2022/05/28 02:07:39;;;;;;;5.50;1.37;;;;;;;;;;5077907;28;20366;-54
2022/05/28 02:10:07;;;;;;;6.53;1.63;;;;;;;;;;5078360;28;20451;-50
2022/05/28 02:12:41;;;;;;;4.45;1.40;;;;;;;;;;5077844;28;20401;-50
2022/05/28 02:15:16;;;;;;;3.87;1.50;;;;;;;;;;5096112;28;20466;-52
2022/05/28 02:17:50;;;;;;;5.68;1.60;;;;;;;;;;5078398;28;20382;-54
2022/05/28 02:20:16;;;;;;;6.20;1.52;;;;;;;;;;5078641;28;20428;-54
2022/05/28 02:22:55;;;;;;;3.88;1.40;;;;;;;;;;5095783;28;20401;-55
2022/05/28 02:25:34;;;;;;;3.00;1.00;;;;;;;;;;5078814;28;20379;-49
2022/05/28 02:28:01;;;;;;;4.95;1.27;;;;;;;;;;5078554;28;20484;-53
2022/05/28 02:30:27;;;;;;;5.43;1.42;;;;;;;;;;5096219;28;20386;-54
2022/05/28 02:33:01;;;;;;;6.10;1.40;;;;;;;;;;5077390;28;20693;-52
2022/05/28 02:35:28;;;;;;;4.63;1.20;;;;;;;;;;5073644;28;20400;-54
2022/05/28 02:37:54;;;;;;;4.28;1.50;;;;;;;;;;5070369;28;20489;-50
2022/05/28 02:40:20;;;;;;;7.43;1.67;;;;;;;;;;5088982;28;20527;-51
2022/05/28 02:42:46;;;;;;;7.60;1.70;;;;;;;;;;5074514;28;20398;-56
2022/05/28 02:45:13;;;;;;;5.03;1.50;;;;;;;;;;5074344;28;20386;-49
2022/05/28 02:47:39;;;;;;;5.70;1.23;;;;;;;;;;5072701;28;20808;-48
2022/05/28 02:50:05;;;;;;;6.88;1.60;;;;;;;;;;5091645;28;20385;-51
2022/05/28 02:52:31;;;;;;;5.68;1.70;;;;;;;;;;5074492;28;20380;-51
2022/05/28 02:54:57;;;;;;;8.30;1.75;;;;;;;;;;5074778;28;20389;-51
2022/05/28 02:57:23;;;;;;;8.13;1.67;;;;;;;;;;5072158;28;20504;-52
2022/05/28 02:59:49;;;;;;;5.85;1.85;;;;;;;;;;5090234;28;20409;-53
2022/05/28 03:02:15;;;;;;;9.05;2.03;;;;;;;;;;5072967;28;20469;-54
2022/05/28 03:04:41;;;;;;;9.43;2.03;;;;;;;;;;5092685;28;20450;-52
2022/05/28 03:07:07;;;;;;;9.37;2.87;;;;;;;;;;5075439;28;20413;-48
2022/05/28 03:09:33;;;;;;;8.68;2.15;;;;;;;;;;5074150;28;20378;-54
2022/05/28 03:11:59;;;;;;;6.50;1.80;;;;;;;;;;5091504;28;20769;-48
2022/05/28 03:14:25;;;;;;;8.48;2.65;;;;;;;;;;5090688;28;20871;-51
2022/05/28 03:16:52;;;;;;;6.90;1.92;;;;;;;;;;5073268;28;20662;-55
2022/05/28 03:19:18;;;;;;;10.07;2.30;;;;;;;;;;5073131;28;20389;-53
2022/05/28 03:21:44;;;;;;;9.32;2.08;;;;;;;;;;5089449;28;20727;-50
2022/05/28 03:24:10;;;;;;;8.18;2.10;;;;;;;;;;5090041;28;20432;-56
2022/05/28 03:26:36;;;;;;;9.45;2.28;;;;;;;;;;5073830;28;20862;-51
2022/05/28 03:29:03;;;;;;;10.70;2.80;;;;;;;;;;5076062;28;20393;-54
2022/05/28 03:31:29;;;;;;;12.57;2.67;;;;;;;;;;5077087;28;20377;-50
2022/05/28 03:33:55;;;;;;;13.45;3.03;;;;;;;;;;5074583;28;20382;-54
2022/05/28 03:36:21;;;;;;;9.73;2.50;;;;;;;;;;5076092;28;20393;-54
2022/05/28 03:38:48;;;;;;;7.97;2.07;;;;;;;;;;5071022;28;20400;-50
2022/05/28 03:41:14;;;;;;;9.50;2.83;;;;;;;;;;5070944;28;20389;-49
2022/05/28 03:43:40;;;;;;;11.73;2.53;;;;;;;;;;5072470;28;20401;-51
2022/05/28 03:46:06;;;;;;;10.70;2.55;;;;;;;;;;5090164;28;20469;-51
2022/05/28 03:48:33;;;;;;;10.40;2.30;;;;;;;;;;5071982;28;20553;-49
2022/05/28 03:50:59;;;;;;;7.93;2.55;;;;;;;;;;5071728;28;20374;-54
2022/05/28 03:53:25;;;;;;;8.23;2.30;;;;;;;;;;5072263;28;20386;-52
2022/05/28 03:55:51;;;;;;;11.05;2.78;;;;;;;;;;5070798;28;20378;-52
2022/05/28 03:58:17;;;;;;;11.07;2.95;;;;;;;;;;5070316;28;20397;-53
2022/05/28 04:00:43;;;;;;;12.20;2.42;;;;;;;;;;5070360;28;20428;-51
2022/05/28 04:03:09;;;;;;;9.27;2.45;;;;;;;;;;5069758;28;20382;-53
2022/05/28 04:05:39;;;;;;;10.83;2.70;;;;;;;;;;5068144;28;20383;-52
2022/05/28 04:08:06;;;;;;;6.82;2.03;;;;;;;;;;5067639;28;20448;-48
2022/05/28 04:10:32;;;;;;;9.07;2.45;;;;;;;;;;5086201;28;20439;-50
2022/05/28 04:12:58;;;;;;;9.03;2.73;;;;;;;;;;5069571;28;20456;-53
2022/05/28 04:15:24;;;;;;;8.87;2.30;;;;;;;;;;5072746;28;20594;-49
2022/05/28 04:17:50;;;;;;;12.27;2.63;;;;;;;;;;5073130;28;20811;-51
2022/05/28 04:20:16;;;;;;;10.88;2.60;;;;;;;;;;5074011;28;20398;-55
2022/05/28 04:22:42;;;;;;;10.38;3.03;;;;;;;;;;5074121;28;20644;-52
2022/05/28 04:25:08;;;;;;;9.35;2.42;;;;;;;;;;5076446;28;20502;-50
2022/05/28 04:27:34;;;;;;;11.48;2.78;;;;;;;;;;5075950;28;20398;-52
2022/05/28 04:30:01;;;;;;;8.10;2.58;;;;;;;;;;5097682;28;20944;-51
2022/05/28 04:32:26;;;;;;;8.90;2.15;;;;;;;;;;5081232;28;20464;-52
2022/05/28 04:34:52;;;;;;;10.02;2.40;;;;;;;;;;5080774;28;20382;-56
2022/05/28 04:37:18;;;;;;;8.15;2.38;;;;;;;;;;5076643;28;20424;-52
2022/05/28 04:39:45;;;;;;;8.90;1.90;;;;;;;;;;5075501;28;20374;-48
2022/05/28 04:42:11;;;;;;;10.30;2.17;;;;;;;;;;5075636;28;20413;-51
2022/05/28 04:44:37;;;;;;;8.70;2.20;;;;;;;;;;5073580;28;20382;-53
2022/05/28 04:47:03;;;;;;;8.82;2.80;;;;;;;;;;5072797;28;20708;-51
2022/05/28 04:49:29;;;;;;;8.25;2.22;;;;;;;;;;5090287;28;20524;-51
2022/05/28 04:51:55;;;;;;;12.85;3.00;;;;;;;;;;5073556;28;20416;-53
2022/05/28 04:54:21;;;;;;;10.25;2.33;;;;;;;;;;5074490;28;20629;-48
2022/05/28 04:56:47;;;;;;;10.07;2.70;;;;;;;;;;5090004;28;20428;-53
2022/05/28 04:59:13;;;;;;;12.63;3.00;;;;;;;;;;5072119;28;20734;-54
2022/05/28 05:01:39;;;;;;;10.75;2.72;;;;;;;;;;5069894;28;20432;-52
2022/05/28 05:04:05;;;;;;;13.07;2.87;;;;;;;;;;5069542;28;20473;-53
2022/05/28 05:06:31;;;;;;;9.37;2.63;;;;;;;;;;5068166;28;20378;-55
2022/05/28 05:08:57;;;;;;;11.43;2.70;;;;;;;;;;5068319;28;20424;-53
2022/05/28 05:11:23;;;;;;;12.80;2.67;;;;;;;;;;5069764;28;20424;-50
2022/05/28 05:13:49;;;;;;;13.48;2.90;;;;;;;;;;5069499;28;20398;-51
2022/05/28 05:16:17;;;;;;;9.30;2.70;;;;;;;;;;5084613;28;20378;-51
2022/05/28 05:18:43;;;;;;;10.82;2.50;;;;;;;;;;5067096;28;20385;-50
2022/05/28 05:21:12;;;;;;;10.00;2.63;;;;;;;;;;5069342;28;20682;-54
2022/05/28 05:23:39;;;;;;;16.05;3.10;;;;;;;;;;5070492;28;20378;-55
2022/05/28 05:26:12;;;;;;;11.88;2.47;;;;;;;;;;5072682;28;20393;-54
2022/05/28 05:28:38;;;;;;;11.38;2.60;;;;;;;;;;5091733;28;20659;-51
2022/05/28 05:31:04;;;;;;;11.60;2.73;;;;;;;;;;5091629;28;20447;-52
2022/05/28 05:33:30;;;;;;;9.82;2.70;;;;;;;;;;5073720;28;20375;-54
2022/05/28 05:35:56;;;;;;;13.85;2.88;;;;;;;;;;5074794;28;20386;-55
2022/05/28 05:38:23;;;;;;;8.95;2.58;;;;;;;;;;5074877;28;20386;-51
2022/05/28 05:40:50;;;;;;;11.10;2.70;;;;;;;;;;5074916;28;20805;-53
2022/05/28 05:43:16;;;;;;;10.40;3.05;;;;;;;;;;5074405;28;20786;-52
2022/05/28 05:45:43;;;;;;;10.40;2.73;;;;;;;;;;5091375;28;20782;-53
2022/05/28 05:48:09;;;;;;;10.52;2.88;;;;;;;;;;5088276;28;20551;-51
2022/05/28 05:50:35;;;;;;;11.05;3.22;;;;;;;;;;5069274;28;20382;-51
2022/05/28 05:53:00;;;;;;;15.25;3.25;;;;;;;;;;5084506;28;20625;-48
2022/05/28 05:55:26;;;;;;;8.02;2.63;;;;;;;;;;5065471;28;20418;-53
2022/05/28 05:57:53;;;;;;;11.18;2.63;;;;;;;;;;5066495;28;20393;-53
2022/05/28 06:00:19;;;;;;;12.27;3.08;;;;;;;;;;5064464;28;20421;-53
2022/05/28 06:02:45;;;;;;;9.70;2.90;;;;;;;;;;5065590;28;20377;-53
2022/05/28 06:05:11;;;;;;;11.88;2.88;;;;;;;;;;5063950;28;20366;-53
2022/05/28 06:07:38;;;;;;;9.20;2.45;;;;;;;;;;5066328;28;20757;-54
2022/05/28 06:10:06;;;;;;;6.90;2.22;;;;;;;;;;5084212;28;20646;-55
2022/05/28 06:12:32;;;;;;;8.65;2.05;;;;;;;;;;5066922;28;20394;-53
2022/05/28 06:14:58;;;;;;;8.35;2.40;;;;;;;;;;5068075;28;20669;-56
2022/05/28 06:17:24;;;;;;;9.10;2.23;;;;;;;;;;5068303;28;20462;-52
2022/05/28 06:19:50;;;;;;;8.90;2.43;;;;;;;;;;5088439;28;20374;-54
2022/05/28 06:22:16;;;;;;;7.40;2.22;;;;;;;;;;5072868;28;20432;-53
2022/05/28 06:24:42;;;;;;;10.25;2.63;;;;;;;;;;5071094;28;20514;-54
2022/05/28 06:27:08;;;;;;;8.70;2.53;;;;;;;;;;5071025;28;20670;-50
2022/05/28 06:29:34;;;;;;;9.30;2.30;;;;;;;;;;5088176;28;20672;-54
2022/05/28 06:32:00;;;;;;;8.40;2.25;;;;;;;;;;5068937;28;20417;-54
2022/05/28 06:34:26;;;;;;;10.63;2.80;;;;;;;;;;5085373;28;20409;-55
2022/05/28 06:36:53;;;;;;;5.95;2.50;;;;;;;;;;5067256;28;20420;-50
2022/05/28 06:39:19;;;;;;;6.93;2.60;;;;;;;;;;5066800;28;20689;-52
2022/05/28 06:41:45;;;;;;;7.47;2.27;;;;;;;;;;5067302;28;20863;-53
2022/05/28 06:44:11;;;;;;;11.00;3.05;;;;;;;;;;5066395;28;20565;-53
2022/05/28 06:46:37;;;;;;;8.32;2.88;;;;;;;;;;5065950;28;20711;-52
2022/05/28 06:49:03;;;;;;;10.38;3.20;;;;;;;;;;5063822;28;20374;-53
2022/05/28 06:51:29;;;;;;;10.77;2.80;;;;;;;;;;5064724;28;20428;-54
2022/05/28 06:53:55;;;;;;;9.60;3.07;;;;;;;;;;5064795;28;20410;-50
2022/05/28 06:56:21;;;;;;;7.07;2.20;;;;;;;;;;5061610;28;20751;-52
2022/05/28 06:58:47;;;;;;;11.20;3.45;;;;;;;;;;5064188;28;20800;-51
2022/05/28 07:01:14;;;;;;;12.38;2.92;;;;;;;;;;5062061;28;20411;-53
2022/05/28 07:03:43;;;;;;;15.82;3.45;;;;;;;;;;5061738;28;20860;-51
2022/05/28 07:06:10;;;;;;;13.85;3.42;;;;;;;;;;5063011;28;20775;-52
2022/05/28 07:08:36;;;;;;;10.30;2.90;;;;;;;;;;5062191;28;20387;-54
2022/05/28 07:11:05;;;;;;;11.40;2.75;;;;;;;;;;5061553;28;20472;-51
2022/05/28 07:13:31;;;;;;;11.40;3.10;;;;;;;;;;5062577;28;21152;-58
2022/05/28 07:15:57;;;;;;;10.47;3.13;;;;;;;;;;5064451;28;20383;-53
2022/05/28 07:18:23;;;;;;;11.45;3.20;;;;;;;;;;5064401;28;20415;-53
2022/05/28 07:20:49;;;;;;;12.95;3.15;;;;;;;;;;5062537;28;20667;-53
2022/05/28 07:23:17;;;;;;;12.90;3.37;;;;;;;;;;5063377;28;20453;-57
2022/05/28 07:25:43;;;;;;;13.05;3.05;;;;;;;;;;5063606;28;20449;-54
2022/05/28 07:28:26;;;;;;;11.47;3.20;;;;;;;;;;5062172;28;20395;-51
2022/05/28 07:30:59;;;;;;;12.45;2.83;;;;;;;;;;5060597;28;20450;-52
2022/05/28 07:33:26;;;;;;;12.40;3.35;;;;;;;;;;5061600;28;20776;-53
2022/05/28 07:35:56;;;;;;;9.25;2.90;;;;;;;;;;5061401;28;20667;-53
2022/05/28 07:38:23;;;;;;;13.30;2.78;;;;;;;;;;5061960;28;20649;-52
2022/05/28 07:40:50;;;;;;;11.90;3.13;;;;;;;;;;5062726;28;20399;-54
2022/05/28 07:43:16;;;;;;;9.95;2.85;;;;;;;;;;5060211;28;20390;-55
2022/05/28 07:45:43;;;;;;;9.93;2.92;;;;;;;;;;5061337;28;21207;-53
2022/05/28 07:48:09;;;;;;;10.60;3.20;;;;;;;;;;5061106;28;20385;-50
2022/05/28 07:50:36;;;;;;;7.90;2.85;;;;;;;;;;5065744;28;20441;-51
2022/05/28 07:53:02;;;;;;;10.67;2.93;;;;;;;;;;5065146;28;20391;-52
2022/05/28 07:55:28;;;;;;;11.43;2.72;;;;;;;;;;5064568;28;20379;-55
2022/05/28 07:57:54;;;;;;;12.73;2.90;;;;;;;;;;5063258;28;20395;-55
2022/05/28 08:00:20;;;;;;;9.50;2.75;;;;;;;;;;5064325;28;20529;-53
2022/05/28 08:02:46;;;;;;;10.10;2.70;;;;;;;;;;5066078;28;20417;-55
2022/05/28 08:05:12;;;;;;;9.77;3.75;;;;;;;;;;5064982;28;20414;-51
2022/05/28 08:07:38;;;;;;;11.65;3.33;;;;;;;;;;5065684;28;20391;-51
2022/05/28 08:10:05;;;;;;;14.48;3.08;;;;;;;;;;5064702;28;20372;-50
2022/05/28 08:12:31;;;;;;;10.80;3.15;;;;;;;;;;5064433;28;20384;-52
2022/05/28 08:14:58;;;;;;;11.05;3.10;;;;;;;;;;5066804;28;20417;-55
2022/05/28 08:17:25;;;;;;;11.23;2.97;;;;;;;;;;5068148;28;20372;-53
2022/05/28 08:19:51;;;;;;;11.82;3.13;;;;;;;;;;5067743;28;20415;-53
2022/05/28 08:25:02;;;;;;;15.15;3.65;;;;;;;;;;5067907;28;20363;-54
2022/05/28 08:27:28;;;;;;;15.75;3.42;;;;;;;;;;5064053;28;20395;-53
2022/05/28 08:29:53;;;;;;;12.90;3.60;;;;;;;;;;5064590;28;20824;-52
2022/05/28 08:32:19;;;;;;;12.73;3.70;;;;;;;;;;5068140;28;20706;-54
2022/05/28 08:34:46;;;;;;;12.00;3.65;;;;;;;;;;5068649;28;20376;-54
2022/05/28 08:37:12;;;;;;;11.02;3.13;;;;;;;;;;5068855;28;20399;-53
2022/05/28 08:39:41;;;;;;;9.18;2.55;;;;;;;;;;5066273;28;20807;-50
2022/05/28 08:42:10;;;;;;;9.15;2.47;;;;;;;;;;5065195;28;20454;-53
2022/05/28 08:44:39;;;;;;;10.02;2.65;;;;;;;;;;5065769;28;20411;-52
2022/05/28 08:47:16;;;;;;;9.32;2.50;;;;;;;;;;5061235;28;20368;-52
2022/05/28 08:49:42;;;;;;;7.80;2.40;;;;;;;;;;5062599;28;20526;-54
2022/05/28 08:52:11;;;;;;;10.65;2.60;;;;;;;;;;5060860;28;20409;-52
2022/05/28 08:54:37;;;;;;;10.18;2.95;;;;;;;;;;5063784;28;20379;-54
2022/05/28 08:57:11;;;;;;;14.35;3.35;;;;;;;;;;5064825;28;20400;-54
2022/05/28 08:59:49;;;;;;;10.23;3.10;;;;;;;;;;5065378;28;20383;-53
2022/05/28 09:02:19;;;;;;;11.70;2.90;;;;;;;;;;5066168;28;20423;-56
2022/05/28 09:04:46;;;;;;;8.70;2.35;;;;;;;;;;5063806;28;20383;-52
2022/05/28 09:07:13;;;;;;;9.00;2.57;;;;;;;;;;5065833;28;20494;-51
2022/05/28 09:09:40;;;;;;;12.73;3.47;;;;;;;;;;5064665;28;20472;-53
2022/05/28 09:12:09;;;;;;;10.88;2.40;;;;;;;;;;5066364;28;20410;-55
2022/05/28 09:14:39;;;;;;;11.45;2.63;;;;;;;;;;5065310;28;20418;-51
2022/05/28 09:17:08;;;;;;;9.73;2.65;;;;;;;;;;5060925;28;20376;-52
2022/05/28 09:19:40;;;;;;;9.93;2.63;;;;;;;;;;5063365;28;20398;-56
2022/05/28 09:22:06;;;;;;;13.88;3.50;;;;;;;;;;5062722;28;20400;-54
2022/05/28 09:24:33;;;;;;;11.98;2.80;;;;;;;;;;5065423;28;20402;-56
2022/05/28 09:26:59;;;;;;;12.32;2.80;;;;;;;;;;5066094;28;20555;-53
2022/05/28 09:29:44;;;;;;;10.45;2.63;;;;;;;;;;5064404;28;20394;-52
2022/05/28 09:32:16;;;;;;;10.25;2.97;;;;;;;;;;5061038;28;20418;-56
2022/05/28 09:34:51;;;;;;;11.85;2.83;;;;;;;;;;5063726;28;20457;-53
2022/05/28 09:37:26;;;;;;;13.23;2.70;;;;;;;;;;5062193;28;20555;-52
2022/05/28 09:39:55;;;;;;;12.70;3.28;;;;;;;;;;5065595;28;20383;-52
2022/05/28 09:42:21;;;;;;;11.85;3.10;;;;;;;;;;5066153;28;20408;-55
2022/05/28 09:44:50;;;;;;;14.07;3.50;;;;;;;;;;5065560;28;20476;-52
2022/05/28 09:47:17;;;;;;;11.30;2.92;;;;;;;;;;5063534;28;20488;-54
2022/05/28 09:49:48;;;;;;;14.32;3.03;;;;;;;;;;5066166;28;20380;-53
2022/05/28 09:52:20;;;;;;;11.25;2.83;;;;;;;;;;5066399;28;20468;-52
2022/05/28 09:54:46;;;;;;;11.30;2.70;;;;;;;;;;5065594;28;20380;-53
2022/05/28 09:57:22;;;;;;;17.38;3.75;;;;;;;;;;5065508;28;20391;-56
2022/05/28 09:59:55;;;;;;;14.27;3.47;;;;;;;;;;5064701;28;20562;-53
2022/05/28 10:02:40;;;;;;;13.10;3.72;;;;;;;;;;5065804;28;20401;-52
2022/05/28 10:05:16;;;;;;;12.13;3.20;;;;;;;;;;5067702;28;20385;-54
2022/05/28 10:07:45;;;;;;;11.05;2.90;;;;;;;;;;5084050;28;21036;-53
2022/05/28 10:10:12;;;;;;;15.27;2.97;;;;;;;;;;5064688;28;20401;-51
2022/05/28 10:12:38;;;;;;;13.25;3.65;;;;;;;;;;5061869;28;20382;-53
2022/05/28 10:15:12;;;;;;;12.57;3.40;;;;;;;;;;5062672;28;20455;-54
2022/05/28 10:17:39;;;;;;;11.90;2.72;;;;;;;;;;5063052;28;20673;-51
2022/05/28 10:20:14;;;;;;;12.70;3.17;;;;;;;;;;5063222;28;20514;-54
2022/05/28 10:22:40;;;;;;;13.63;3.05;;;;;;;;;;5063652;28;20465;-49
2022/05/28 10:25:10;;;;;;;10.98;2.83;;;;;;;;;;5066033;28;20402;-55
2022/05/28 10:27:39;;;;;;;9.10;2.40;;;;;;;;;;5085061;28;20389;-55
2022/05/28 10:30:07;;;;;;;7.95;2.13;;;;;;;;;;5067520;28;20476;-53
2022/05/28 10:32:34;;;;;;;10.57;2.28;;;;;;;;;;5068690;28;20378;-56
2022/05/28 10:35:03;;;;;;;10.85;2.72;;;;;;;;;;5068400;28;20374;-53
2022/05/28 10:37:30;;;;;;;12.00;3.35;;;;;;;;;;5068047;28;20397;-55
2022/05/28 10:40:08;;;;;;;9.57;2.95;;;;;;;;;;5068760;28;20384;-54
2022/05/28 10:42:34;;;;;;;12.32;2.65;;;;;;;;;;5066235;28;20508;-49
2022/05/28 10:45:00;;;;;;;9.80;2.78;;;;;;;;;;5067083;28;20386;-54
2022/05/28 10:47:37;;;;;;;10.55;3.03;;;;;;;;;;5064380;28;20390;-54
2022/05/28 10:50:16;;;;;;;11.70;3.15;;;;;;;;;;5065838;28;20374;-57
2022/05/28 10:52:42;;;;;;;11.00;3.20;;;;;;;;;;5064929;28;20374;-54
2022/05/28 10:55:10;;;;;;;15.00;3.25;;;;;;;;;;5066130;28;20382;-51
2022/05/28 10:57:51;;;;;;;10.97;3.10;;;;;;;;;;5064504;28;20381;-50
2022/05/28 11:00:21;;;;;;;11.30;3.00;;;;;;;;;;5062660;28;20403;-53
2022/05/28 11:02:47;;;;;;;11.02;2.50;;;;;;;;;;5081910;28;20390;-51
2022/05/28 11:05:19;;;;;;;14.57;3.50;;;;;;;;;;5063494;28;20546;-55
2022/05/28 11:07:51;;;;;;;13.60;3.10;;;;;;;;;;5062453;28;20689;-55
2022/05/28 11:10:20;;;;;;;13.98;3.28;;;;;;;;;;5086779;28;20374;-53
2022/05/28 11:13:00;;;;;;;8.93;2.90;;;;;;;;;;5069273;28;20402;-55
2022/05/28 11:15:26;;;;;;;9.57;2.60;;;;;;;;;;5071738;28;20871;-50
2022/05/28 11:17:53;;;;;;;10.32;2.83;;;;;;;;;;5067939;28;20374;-54
2022/05/28 11:20:28;;;;;;;10.40;2.72;;;;;;;;;;5066458;28;20447;-56
2022/05/28 11:23:14;;;;;;;12.88;3.67;;;;;;;;;;5067249;28;20404;-51
2022/05/28 11:25:46;;;;;;;10.98;3.40;;;;;;;;;;5068612;28;20808;-56
2022/05/28 11:28:27;;;;;;;13.00;3.20;;;;;;;;;;5066465;28;20397;-56
2022/05/28 11:30:56;;;;;;;12.38;3.30;;;;;;;;;;5083289;28;20887;-55
2022/05/28 11:33:32;;;;;;;18.73;3.80;;;;;;;;;;5067853;28;20401;-54
2022/05/28 11:36:06;;;;;;;11.35;3.05;;;;;;;;;;5085001;28;21087;-55
2022/05/28 11:38:37;;;;;;;10.48;3.53;;;;;;;;;;5069904;28;20693;-54
2022/05/28 11:41:16;;;;;;;11.87;3.00;;;;;;;;;;5069516;28;20386;-52
2022/05/28 11:43:55;;;;;;;13.20;3.70;;;;;;;;;;5067649;28;20455;-56
2022/05/28 11:46:24;;;;;;;13.23;3.65;;;;;;;;;;5068137;28;20385;-52
2022/05/28 11:51:48;;;;;;;14.65;3.97;;;;;;;;;;5082209;28;20368;-52
2022/05/28 11:54:19;;;;;;;15.93;4.43;;;;;;;;;;5065261;28;20774;-53
2022/05/28 11:56:47;;;;;;;21.27;4.75;;;;;;;;;;5065012;28;20401;-58
2022/05/28 11:59:19;;;;;;;16.75;4.53;;;;;;;;;;5068050;28;20484;-57
2022/05/28 12:01:49;;;;;;;16.20;4.35;;;;;;;;;;5068964;28;20406;-59
2022/05/28 12:04:16;;;;;;;17.70;3.83;;;;;;;;;;5068349;28;20390;-54
2022/05/28 12:06:48;;;;;;;19.23;4.60;;;;;;;;;;5069654;28;20384;-57
2022/05/28 12:09:18;;;;;;;16.17;4.43;;;;;;;;;;5071682;28;20382;-54
2022/05/28 12:12:00;;;;;;;14.70;3.50;;;;;;;;;;5073388;28;20398;-56
2022/05/28 12:14:34;;;;;;;15.75;4.00;;;;;;;;;;5089681;28;20852;-54
2022/05/28 12:17:07;;;;;;;13.45;3.60;;;;;;;;;;5089780;28;20731;-56
2022/05/28 12:19:34;;;;;;;18.93;3.17;;;;;;;;;;5089304;28;20443;-56
2022/05/28 12:22:22;;;;;;;13.23;3.30;;;;;;;;;;5071561;28;20494;-57
2022/05/28 12:24:58;;;;;;;11.70;2.97;;;;;;;;;;5072143;28;21051;-56
2022/05/28 12:27:25;;;;;;;10.82;3.10;;;;;;;;;;5071082;28;20443;-57
2022/05/28 12:30:02;;;;;;;12.68;3.42;;;;;;;;;;5089711;28;20370;-57
2022/05/28 12:32:42;;;;;;;12.30;3.13;;;;;;;;;;5091421;28;20390;-55
2022/05/28 12:35:21;;;;;;;11.73;3.00;;;;;;;;;;5074428;28;20472;-54
2022/05/28 12:37:56;;;;;;;9.00;2.72;;;;;;;;;;5076403;28;20386;-56
2022/05/28 12:40:40;;;;;;;9.68;2.40;;;;;;;;;;5077329;28;20389;-58
2022/05/28 12:43:26;;;;;;;8.95;2.20;;;;;;;;;;5076365;28;20392;-53
2022/05/28 12:45:53;;;;;;;7.65;1.92;;;;;;;;;;5074282;28;20447;-52
2022/05/28 12:48:26;;;;;;;7.97;2.22;;;;;;;;;;5092688;28;21006;-55
2022/05/28 12:51:01;;;;;;;7.85;2.00;;;;;;;;;;5093357;28;20389;-55
2022/05/28 12:53:28;;;;;;;8.55;2.25;;;;;;;;;;5075193;28;20598;-56
2022/05/28 12:56:06;;;;;;;10.00;2.17;;;;;;;;;;5092284;28;20770;-57
2022/05/28 12:58:33;;;;;;;11.43;2.75;;;;;;;;;;5074524;28;20452;-57
2022/05/28 13:01:01;;;;;;;6.40;1.77;;;;;;;;;;5074454;28;20422;-55
2022/05/28 13:03:30;;;;;;;10.77;2.40;;;;;;;;;;5073806;28;20392;-55
2022/05/28 13:06:05;;;;;;;11.57;2.40;;;;;;;;;;5089585;28;20461;-57
2022/05/28 13:08:33;;;;;;;10.20;2.20;;;;;;;;;;5068875;28;20825;-56
2022/05/28 13:11:06;;;;;;;9.63;2.15;;;;;;;;;;5071493;28;21090;-56
2022/05/28 13:13:35;;;;;;;10.77;2.28;;;;;;;;;;5071933;28;20398;-54
2022/05/28 13:16:10;;;;;;;9.13;2.70;;;;;;;;;;5072634;28;20509;-56
2022/05/28 13:18:44;;;;;;;9.80;2.20;;;;;;;;;;5071986;28;20489;-54
2022/05/28 13:21:17;;;;;;;12.52;3.17;;;;;;;;;;5073308;28;20410;-56
2022/05/28 13:23:52;;;;;;;12.73;2.88;;;;;;;;;;5073463;28;20401;-56
2022/05/28 13:26:22;;;;;;;11.27;2.50;;;;;;;;;;5073930;28;20390;-56
2022/05/28 13:29:07;;;;;;;8.85;2.53;;;;;;;;;;5072369;28;20417;-57
2022/05/28 13:31:36;;;;;;;10.95;2.97;;;;;;;;;;5071531;28;20370;-53
2022/05/28 13:34:22;;;;;;;12.23;2.77;;;;;;;;;;5090018;28;20455;-53
2022/05/28 13:36:48;;;;;;;13.27;3.28;;;;;;;;;;5072627;28;20378;-57
2022/05/28 13:39:14;;;;;;;9.88;3.08;;;;;;;;;;5087546;28;20636;-53
2022/05/28 13:41:41;;;;;;;12.55;3.20;;;;;;;;;;5071769;28;20402;-55
2022/05/28 13:44:12;;;;;;;13.07;2.88;;;;;;;;;;5073568;28;20382;-56
2022/05/28 13:46:44;;;;;;;9.60;2.93;;;;;;;;;;5092700;28;20371;-51
2022/05/28 13:49:10;;;;;;;11.20;2.67;;;;;;;;;;5076231;28;20822;-54
2022/05/28 13:51:37;;;;;;;9.73;3.15;;;;;;;;;;5075491;28;20378;-54
2022/05/28 13:54:07;;;;;;;12.13;3.20;;;;;;;;;;5073453;28;20382;-57
2022/05/28 13:56:34;;;;;;;15.85;3.25;;;;;;;;;;5074439;28;20435;-56
2022/05/28 13:59:01;;;;;;;11.03;3.20;;;;;;;;;;5072619;28;20386;-53
2022/05/28 14:01:32;;;;;;;9.80;2.85;;;;;;;;;;5088936;28;20418;-55
2022/05/28 14:04:09;;;;;;;15.63;3.72;;;;;;;;;;5071153;28;20422;-56
2022/05/28 14:06:36;;;;;;;10.82;3.10;;;;;;;;;;5088365;28;20381;-50
2022/05/28 14:09:04;;;;;;;9.98;2.60;;;;;;;;;;5069099;28;20385;-54
2022/05/28 14:11:37;;;;;;;12.20;3.58;;;;;;;;;;5069049;28;20405;-57
2022/05/28 14:14:15;;;;;;;16.52;3.30;;;;;;;;;;5070414;28;20382;-54
2022/05/28 14:16:48;;;;;;;10.30;3.15;;;;;;;;;;5070239;28;20465;-55
2022/05/28 14:19:21;;;;;;;11.82;3.22;;;;;;;;;;5071338;28;20370;-56
2022/05/28 14:21:53;;;;;;;12.73;4.22;;;;;;;;;;5072191;28;20401;-54
2022/05/28 14:24:22;;;;;;;13.25;4.47;;;;;;;;;;5071806;28;20465;-53
2022/05/28 14:26:50;;;;;;;14.00;4.45;;;;;;;;;;5068767;28;20404;-57
2022/05/28 14:29:17;;;;;;;13.32;3.85;;;;;;;;;;5067839;28;20492;-55
2022/05/28 14:31:43;;;;;;;13.00;3.58;;;;;;;;;;5067380;28;20482;-55
2022/05/28 14:34:10;;;;;;;13.90;3.97;;;;;;;;;;5069888;28;20439;-57
2022/05/28 14:36:37;;;;;;;15.80;3.58;;;;;;;;;;5070228;28;20390;-50
2022/05/28 14:39:09;;;;;;;13.38;3.85;;;;;;;;;;5064182;28;20390;-55
2022/05/28 14:41:35;;;;;;;12.35;3.28;;;;;;;;;;5077461;28;20470;-53
2022/05/28 14:44:01;;;;;;;11.65;3.20;;;;;;;;;;5058652;28;20386;-53
2022/05/28 14:46:36;;;;;;;15.23;4.18;;;;;;;;;;5076644;28;20530;-56
2022/05/28 14:49:06;;;;;;;11.97;3.50;;;;;;;;;;5058976;28;20694;-55
2022/05/28 14:51:42;;;;;;;11.70;3.50;;;;;;;;;;5078362;28;20650;-56